METAR Data
IDs: Format: Raw Decoded Include TAF

Data at: 1815 UTC 26 Sep 2021

METAR for:KHXD (Hilton Head Arpt, SC, US)
Text:KHXD 261750Z 00000KT 10SM CLR 27/14 A3014
Temperature: 27.0°C ( 81°F)
Dewpoint: 14.0°C ( 57°F) [RH = 45%]
Pressure (altimeter):30.14 inches Hg (1020.7 mb)
Winds:calm
Visibility:10 or more sm (16+ km)
Ceiling:at least 12,000 feet AGL
Clouds:sky clear below 12,000 feet AGL

TAF for:KHXD (Hilton Head Arpt, SC, US)
Text:No data found